map of FSZ home
FSZ - Airport
Location
City:  Shizuoka, Shizuoka, Japan
Near (Alt.):Makinohara City, Shimada City
Name:Mt. Fuji Shizuoka Airport
ICAO:RJNS
IATA:FSZ

Details
Type:Airport (Aerodrome, Airfield)
Use:Public/Civil
Latitude:34°47'46"N (34.796111)
Longitude:138°11'22"E (138.189444)
Elevation:433 ft (132 m)
Variation:7.49°W (WMM2015v2 magnetic declination)
-0.07° annual change
Runways:1
Longest:8202 × 197 ft (2500 × 60 m), paved

Time
Time Zone:UTC+9
Local Time:

Weather
METAR:RJNS 041200Z 27023G36KT 9999 FEW030 08/M03 Q1014
TAF:RJNS 041106Z 0412/0518 27016KT 9999 FEW030
BECMG 0422/0500 12006KT
BECMG 0509/0512 34005KT

Related Locations
Nearby:
Farthest:SNPV: 11859 mi / 19085 km
Mostardas [Solidão], RS, BR

Find:

   beyond  
but within

Other Information
Maps:
NOTAMs:
Links:
Sources:

  
  • flag of Japan
  • flag of Shizuoka
  • flag of Shizuoka
  

Sectional Chart

Flight Planning
at skyvector.com

Satellite Image

Google Maps Satellite view

 

Copyright © 2004-2019 Karl L. Swartz. All rights reserved.
The Great Circle Mapper name and logo are trademarks of the Great Circle Mapper.
All other trademarks mentioned herein belong to their respective owners.
Please see credits for attibutions and further copyright information.

  Follow gcmap on Facebook Follow gcmap on Twitter GCmap on LinkedIn

hCard Microformat

Geo Microformat